Time;durP1;ratioP1;P1;durP2;ratioP2;P2;SDS_P1;SDS_P2;PMS_P1;PMS_P2;Temp;Humidity;BMP_temperature;BMP_pressure;BME280_temperature;BME280_humidity;BME280_pressure;Samples;Min_cycle;Max_cycle;Signal;HPM_P1;HPM_P2
2021/06/21 00:01:08;;;;;;;;;5.00;5.00;;;;;21.12;74.12;100388.03;4979123;28;45452;-79
2021/06/21 00:03:33;;;;;;;;;7.25;7.25;;;;;21.11;74.56;100385.50;4979360;28;45403;-79
2021/06/21 00:05:59;;;;;;;;;7.75;7.25;;;;;21.11;74.37;100386.31;4978365;28;45599;-82
2021/06/21 00:08:24;;;;;;;;;5.50;5.50;;;;;21.12;74.75;100381.84;4978303;28;45221;-82
2021/06/21 00:10:49;;;;;;;;;5.50;5.50;;;;;21.17;74.31;100389.47;4977321;28;47384;-83
2021/06/21 00:13:17;;;;;;;;;6.00;6.00;;;;;21.15;74.50;100397.63;4994432;28;47350;-80
2021/06/21 00:15:42;;;;;;;;;6.00;5.00;;;;;21.12;74.33;100395.19;4994254;28;45960;-81
2021/06/21 00:18:12;;;;;;;;;8.25;6.75;;;;;21.12;74.44;100393.38;4978880;28;45220;-77
2021/06/21 00:20:37;;;;;;;;;5.00;5.00;;;;;21.11;74.45;100391.66;4979266;28;45340;-77
2021/06/21 00:23:02;;;;;;;;;7.50;5.50;;;;;21.12;74.21;100392.53;4977611;28;48206;-77
2021/06/21 00:25:28;;;;;;;;;8.00;8.00;;;;;21.10;74.48;100391.81;4978045;28;45273;-77
2021/06/21 00:27:53;;;;;;;;;6.00;6.00;;;;;21.09;74.57;100393.63;4978873;28;45261;-77
2021/06/21 00:30:20;;;;;;;;;9.50;8.50;;;;;21.10;74.96;100395.31;4997556;28;45800;-77
2021/06/21 00:32:47;;;;;;;;;7.50;7.50;;;;;21.17;74.65;100401.00;4982089;28;45329;-77
2021/06/21 00:35:14;;;;;;;;;5.50;5.25;;;;;21.17;74.26;100405.50;4982708;28;45479;-77
2021/06/21 00:37:40;;;;;;;;;6.25;6.25;;;;;21.19;74.21;100406.19;4981193;28;45321;-82
2021/06/21 00:40:08;;;;;;;;;6.00;6.00;;;;;21.23;74.04;100408.50;4982073;28;45266;-77
2021/06/21 00:42:35;;;;;;;;;7.00;6.25;;;;;21.23;73.72;100402.31;4981977;28;45651;-77
2021/06/21 00:45:00;;;;;;;;;8.75;7.25;;;;;21.23;74.19;100402.31;4982525;28;45531;-83
2021/06/21 00:47:26;;;;;;;;;6.75;6.25;;;;;21.16;73.90;100395.78;4982325;28;45361;-82
2021/06/21 00:49:51;;;;;;;;;8.75;7.00;;;;;21.13;74.40;100391.56;4982361;28;45456;-84
2021/06/21 00:52:21;;;;;;;;;7.00;7.00;;;;;21.14;74.17;100396.75;4982398;28;45607;-85
2021/06/21 00:54:46;;;;;;;;;7.00;7.00;;;;;21.09;74.17;100390.94;4982145;28;45245;-87
2021/06/21 00:57:12;;;;;;;;;12.00;9.50;;;;;21.11;74.54;100405.03;4978763;28;45492;-81
2021/06/21 00:59:37;;;;;;;;;9.00;9.00;;;;;21.16;74.19;100403.81;4981273;28;45444;-81
2021/06/21 01:02:03;;;;;;;;;8.75;8.00;;;;;21.16;74.43;100401.13;4981950;28;46373;-81
2021/06/21 01:04:29;;;;;;;;;12.75;9.25;;;;;21.15;74.04;100394.94;4981904;28;45461;-81
2021/06/21 01:06:54;;;;;;;;;7.25;7.25;;;;;21.09;74.39;100398.97;4975408;28;45500;-81
2021/06/21 01:09:20;;;;;;;;;10.75;9.00;;;;;21.06;74.54;100396.56;4981305;28;45472;-80
2021/06/21 01:12:08;;;;;;;;;10.75;10.00;;;;;21.03;74.64;100388.81;4981855;28;45331;-80
2021/06/21 01:14:42;;;;;;;;;9.75;8.00;;;;;21.01;74.70;100386.25;4982145;28;45524;-80
2021/06/21 01:17:19;;;;;;;;;12.25;10.00;;;;;21.01;74.49;100393.44;4970893;28;45508;-80
2021/06/21 01:20:02;;;;;;;;;13.25;11.00;;;;;21.02;74.86;100400.44;4981320;28;45684;-80
2021/06/21 01:23:04;;;;;;;;;15.50;14.50;;;;;21.03;74.60;100404.84;4981693;28;45531;-80
2021/06/21 01:25:58;;;;;;;;;16.00;13.50;;;;;21.06;74.55;100404.59;4981414;28;45423;-85
2021/06/21 01:28:42;;;;;;;;;15.25;15.25;;;;;21.10;73.99;100402.50;4965603;28;45458;-85
2021/06/21 01:31:20;;;;;;;;;12.25;12.25;;;;;21.10;74.09;100402.50;4977794;28;47203;-85
2021/06/21 01:33:48;;;;;;;;;18.25;17.50;;;;;21.13;74.13;100399.56;4975062;28;47219;-86
2021/06/21 01:36:17;;;;;;;;;11.50;8.75;;;;;21.23;73.68;100413.00;4996004;28;45261;-83
2021/06/21 01:38:45;;;;;;;;;14.50;13.50;;;;;21.29;73.34;100423.16;4981330;28;45226;-84
2021/06/21 01:41:21;;;;;;;;;13.00;13.00;;;;;21.33;73.06;100411.25;4969248;28;45448;-85
2021/06/21 01:43:49;;;;;;;;;13.00;12.75;;;;;21.39;73.00;100417.03;4981366;28;46510;-85
2021/06/21 01:46:18;;;;;;;;;15.00;15.00;;;;;21.43;72.85;100419.34;4980799;28;45672;-85
2021/06/21 01:48:48;;;;;;;;;8.25;7.75;;;;;21.44;72.06;100409.47;4984710;28;45447;-80
2021/06/21 01:51:15;;;;;;;;;12.25;10.75;;;;;21.44;72.08;100412.16;4973275;28;45274;-81
2021/06/21 01:53:41;;;;;;;;;12.00;10.00;;;;;21.43;71.43;100411.34;4981048;28;45206;-81
2021/06/21 01:56:11;;;;;;;;;12.50;11.50;;;;;21.43;71.52;100415.81;4980799;28;45242;-82
2021/06/21 01:58:38;;;;;;;;;9.25;9.25;;;;;21.43;71.97;100416.69;4996542;28;45354;-76
2021/06/21 02:01:15;;;;;;;;;6.50;6.50;;;;;21.47;70.94;100419.91;4980800;28;45239;-77
2021/06/21 02:03:44;;;;;;;;;6.25;5.50;;;;;21.46;71.22;100426.22;4979234;28;47936;-77
2021/06/21 02:06:11;;;;;;;;;7.50;6.00;;;;;21.42;71.05;100414.13;4979354;28;45480;-85
2021/06/21 02:08:39;;;;;;;;;5.00;5.00;;;;;21.39;70.53;100412.53;4977013;28;45357;-86
2021/06/21 02:11:06;;;;;;;;;4.25;4.25;;;;;21.39;70.53;100425.06;4996146;28;47319;-86
2021/06/21 02:13:33;;;;;;;;;4.75;4.25;;;;;21.34;69.72;100436.13;4995962;28;47380;-88
2021/06/21 02:15:59;;;;;;;;;7.00;4.50;;;;;21.28;70.22;100439.34;4979440;28;45760;-89
2021/06/21 02:18:25;;;;;;;;;5.00;3.75;;;;;21.24;70.02;100433.38;4979809;28;45341;-87
2021/06/21 02:20:53;;;;;;;;;6.00;5.50;;;;;21.10;70.31;100432.72;4979567;28;47040;-86
2021/06/21 02:23:21;;;;;;;;;3.00;3.00;;;;;21.06;70.60;100433.97;4996037;28;47169;-83
2021/06/21 02:25:48;;;;;;;;;5.50;5.00;;;;;21.03;69.84;100439.56;4979963;28;45210;-82
2021/06/21 02:28:16;;;;;;;;;5.00;4.00;;;;;20.91;70.11;100434.22;4980796;28;45285;-83
2021/06/21 02:30:42;;;;;;;;;1.75;1.50;;;;;20.88;70.55;100429.13;4980422;28;45486;-80
2021/06/21 02:33:07;;;;;;;;;3.75;3.75;;;;;20.87;70.75;100435.44;4971124;28;45439;-80
2021/06/21 02:35:33;;;;;;;;;4.25;4.25;;;;;20.84;71.02;100430.34;4978926;28;45434;-81
2021/06/21 02:37:58;;;;;;;;;4.50;4.00;;;;;20.93;70.90;100436.78;4974536;28;45496;-79
2021/06/21 02:40:25;;;;;;;;;4.75;3.00;;;;;21.04;71.02;100443.09;4980495;28;45508;-81
2021/06/21 02:42:50;;;;;;;;;4.00;2.00;;;;;21.13;70.33;100451.19;4979292;28;48088;-86
2021/06/21 02:45:16;;;;;;;;;3.25;3.25;;;;;21.14;70.34;100442.19;4979374;28;45303;-84
2021/06/21 02:47:44;;;;;;;;;4.00;4.00;;;;;21.09;69.87;100439.03;4980032;28;45429;-84
2021/06/21 02:50:10;;;;;;;;;2.00;2.00;;;;;21.02;69.92;100443.19;4991161;28;46029;-84
2021/06/21 02:52:51;;;;;;;;;3.50;3.50;;;;;20.94;70.23;100445.63;4979311;28;46603;-84
2021/06/21 02:55:33;;;;;;;;;4.00;3.50;;;;;20.89;69.57;100440.69;4980564;28;45518;-84
2021/06/21 02:58:03;;;;;;;;;5.00;4.00;;;;;20.94;70.14;100440.28;4974679;28;45468;-83
2021/06/21 03:00:29;;;;;;;;;5.00;3.00;;;;;20.96;70.78;100451.69;4980632;28;45459;-89
2021/06/21 03:02:56;;;;;;;;;3.00;3.00;;;;;20.95;70.71;100452.66;4978960;28;47096;-81
2021/06/21 03:05:23;;;;;;;;;4.00;4.00;;;;;20.99;70.56;100457.63;4978916;28;45334;-77
2021/06/21 03:07:51;;;;;;;;;4.00;4.00;;;;;20.92;69.89;100461.78;4991159;28;45266;-80
2021/06/21 03:10:17;;;;;;;;;3.00;3.00;;;;;20.89;70.37;100462.03;4978829;28;45936;-80
2021/06/21 03:12:45;;;;;;;;;4.75;4.75;;;;;20.89;70.04;100468.22;4978848;28;47332;-80
2021/06/21 03:15:13;;;;;;;;;5.00;4.50;;;;;20.92;70.12;100459.97;4978814;28;45831;-79
2021/06/21 03:17:39;;;;;;;;;3.00;3.00;;;;;20.97;70.15;100466.72;4977254;28;45261;-79
2021/06/21 03:20:05;;;;;;;;;4.00;4.00;;;;;21.00;70.41;100458.47;4980109;28;45438;-80
2021/06/21 03:22:31;;;;;;;;;4.25;3.50;;;;;21.02;69.98;100467.25;4980139;28;46359;-80
2021/06/21 03:24:56;;;;;;;;;3.75;3.75;;;;;21.02;70.07;100461.91;4978770;28;46129;-80
2021/06/21 03:27:33;;;;;;;;;7.75;6.75;;;;;21.01;69.77;100460.22;4978185;28;45302;-80
2021/06/21 03:30:00;;;;;;;;;6.00;4.75;;;;;21.00;70.05;100466.50;4978757;28;46441;-80
2021/06/21 03:32:32;;;;;;;;;4.50;3.25;;;;;20.99;70.00;100456.78;4978062;28;48312;-89
2021/06/21 03:35:00;;;;;;;;;6.00;4.75;;;;;21.01;70.24;100470.91;4978925;28;45626;-89
2021/06/21 03:37:26;;;;;;;;;7.25;6.50;;;;;21.02;69.78;100460.09;4979787;28;45363;-89
2021/06/21 03:39:52;;;;;;;;;5.50;5.00;;;;;21.00;70.15;100463.81;4980001;28;45463;-86
2021/06/21 03:42:17;;;;;;;;;6.00;6.00;;;;;20.97;69.89;100462.25;4978309;28;48777;-79
2021/06/21 03:44:43;;;;;;;;;6.25;6.25;;;;;20.95;69.94;100466.03;4980009;28;45220;-81
2021/06/21 03:47:11;;;;;;;;;6.25;5.00;;;;;20.89;70.33;100462.88;4974084;28;45436;-80
2021/06/21 03:49:39;;;;;;;;;6.25;6.25;;;;;20.91;70.21;100471.59;4990404;28;45408;-79
2021/06/21 03:52:05;;;;;;;;;8.75;6.25;;;;;20.90;70.28;100472.59;4980245;28;45420;-82
2021/06/21 03:54:30;;;;;;;;;6.50;6.50;;;;;20.87;70.21;100475.50;4979620;28;45252;-84
2021/06/21 03:56:56;;;;;;;;;8.00;7.00;;;;;20.78;70.12;100468.25;4978837;28;45384;-85
2021/06/21 03:59:21;;;;;;;;;8.25;5.75;;;;;20.75;70.68;100471.16;4979867;28;45587;-83
2021/06/21 04:01:48;;;;;;;;;6.50;5.50;;;;;20.71;70.63;100472.38;4979089;28;45392;-83
2021/06/21 04:04:14;;;;;;;;;10.00;10.00;;;;;20.65;70.26;100474.56;4981859;28;45304;-84
2021/06/21 04:06:39;;;;;;;;;5.00;5.00;;;;;20.61;70.93;100467.81;4981034;28;45476;-85
2021/06/21 04:09:04;;;;;;;;;5.25;5.25;;;;;20.67;71.07;100469.97;4983003;28;45486;-81
2021/06/21 04:11:30;;;;;;;;;6.00;6.00;;;;;20.75;70.60;100473.84;4982155;28;45423;-81
2021/06/21 04:13:56;;;;;;;;;5.50;5.00;;;;;20.79;70.44;100472.63;4983341;28;45243;-81
2021/06/21 04:16:22;;;;;;;;;9.50;7.25;;;;;20.91;70.34;100474.28;4977894;28;45451;-82
2021/06/21 04:18:47;;;;;;;;;6.75;5.00;;;;;20.99;70.09;100486.19;4974916;28;45313;-82
2021/06/21 04:21:13;;;;;;;;;7.00;7.00;;;;;21.08;69.79;100489.94;4982366;28;46469;-81
2021/06/21 04:23:38;;;;;;;;;5.25;5.25;;;;;21.10;69.66;100488.00;4982822;28;45433;-80
2021/06/21 04:26:04;;;;;;;;;6.00;5.75;;;;;21.17;69.60;100491.84;4974541;28;45469;-87
2021/06/21 04:28:29;;;;;;;;;7.00;6.75;;;;;21.12;69.29;100486.88;4981127;28;46189;-81
2021/06/21 04:30:54;;;;;;;;;5.50;4.75;;;;;21.09;69.41;100481.78;4982690;28;46138;-95
2021/06/21 04:33:20;;;;;;;;;7.00;7.00;;;;;21.07;69.45;100496.25;4984048;28;45237;-95
2021/06/21 04:35:45;;;;;;;;;6.50;6.50;;;;;20.99;69.60;100494.19;4980969;28;45322;-91
2021/06/21 04:38:10;;;;;;;;;11.00;8.00;;;;;21.02;69.75;100496.63;4981472;28;47112;-78
2021/06/21 04:40:37;;;;;;;;;7.50;7.25;;;;;21.00;69.77;100499.44;4980906;28;47131;-81
2021/06/21 04:43:03;;;;;;;;;6.50;6.00;;;;;21.01;69.69;100514.47;4981156;28;45359;-80
2021/06/21 04:45:29;;;;;;;;;7.75;7.75;;;;;21.02;69.54;100510.84;4996137;28;45438;-80
2021/06/21 04:47:54;;;;;;;;;6.00;6.00;;;;;21.01;69.42;100503.78;4967950;28;45416;-81
2021/06/21 04:50:20;;;;;;;;;6.00;6.00;;;;;21.01;69.52;100502.97;4992150;28;46441;-83
2021/06/21 04:52:47;;;;;;;;;8.25;7.00;;;;;21.05;69.62;100507.06;4981983;28;45280;-83
2021/06/21 04:55:15;;;;;;;;;6.25;6.25;;;;;21.04;69.15;100499.19;4981891;28;45419;-83
2021/06/21 04:57:42;;;;;;;;;6.50;6.00;;;;;21.11;69.33;100511.06;4982458;28;45550;-82
2021/06/21 05:00:14;;;;;;;;;6.25;6.25;;;;;21.18;69.34;100516.75;4982193;28;45342;-91
2021/06/21 05:02:40;;;;;;;;;7.25;4.50;;;;;21.18;69.07;100517.63;4967774;28;45290;-88
2021/06/21 05:05:06;;;;;;;;;7.75;7.75;;;;;21.24;68.72;100521.59;4975989;28;46909;-83
2021/06/21 05:07:32;;;;;;;;;7.00;5.50;;;;;21.27;68.33;100524.00;4981910;28;46927;-80
2021/06/21 05:09:57;;;;;;;;;8.00;8.00;;;;;21.30;68.78;100526.44;4980902;28;48025;-77
2021/06/21 05:12:23;;;;;;;;;7.75;7.75;;;;;21.27;68.62;100520.47;4981410;28;45227;-77
2021/06/21 05:14:48;;;;;;;;;7.00;6.50;;;;;21.28;68.81;100523.03;4981040;28;45176;-77
2021/06/21 05:17:14;;;;;;;;;6.00;6.00;;;;;21.30;68.76;100529.13;4981744;28;45423;-82
2021/06/21 05:19:39;;;;;;;;;6.75;5.75;;;;;21.33;68.68;100525.34;4982007;28;45582;-79
2021/06/21 05:22:06;;;;;;;;;7.00;6.00;;;;;21.33;68.16;100526.19;4996701;28;45329;-79
2021/06/21 05:24:32;;;;;;;;;8.25;7.00;;;;;21.38;68.41;100524.94;4980230;28;45277;-78
2021/06/21 05:26:57;;;;;;;;;9.00;7.00;;;;;21.34;68.20;100521.66;4984451;28;45496;-77
2021/06/21 05:29:23;;;;;;;;;7.25;7.25;;;;;21.34;68.43;100527.88;4982160;28;46086;-77
2021/06/21 05:31:49;;;;;;;;;8.00;7.00;;;;;21.34;68.58;100524.34;4981302;28;45389;-77
2021/06/21 05:34:14;;;;;;;;;7.75;7.75;;;;;21.33;67.99;100531.53;4981980;28;45353;-77
2021/06/21 05:36:40;;;;;;;;;10.50;10.50;;;;;21.33;68.30;100536.88;4981488;28;45514;-77
2021/06/21 05:39:06;;;;;;;;;9.75;9.25;;;;;21.30;67.93;100537.13;4980264;28;46342;-77
2021/06/21 05:41:31;;;;;;;;;10.50;8.50;;;;;21.23;67.75;100541.28;4984163;28;46088;-78
2021/06/21 05:43:57;;;;;;;;;8.00;8.00;;;;;21.21;68.17;100532.53;4986125;28;45297;-77
2021/06/21 05:46:22;;;;;;;;;7.00;7.00;;;;;21.19;67.59;100534.47;4996788;28;45341;-77
2021/06/21 05:48:48;;;;;;;;;7.75;7.50;;;;;21.11;68.43;100538.63;4984794;28;45334;-77
2021/06/21 05:51:13;;;;;;;;;6.25;6.00;;;;;21.08;68.48;100538.88;4981565;28;45198;-77
2021/06/21 05:53:38;;;;;;;;;7.00;6.25;;;;;21.06;68.61;100546.19;4981367;28;45531;-77
2021/06/21 05:56:04;;;;;;;;;8.25;7.00;;;;;21.04;68.34;100547.28;4978443;28;45230;-78
2021/06/21 05:58:30;;;;;;;;;6.25;6.25;;;;;21.01;68.79;100551.06;4995607;28;47722;-77
2021/06/21 06:00:55;;;;;;;;;8.50;8.00;;;;;21.06;68.77;100556.03;4979534;28;45584;-78
2021/06/21 06:03:20;;;;;;;;;8.00;8.00;;;;;21.07;68.65;100561.22;4981077;28;45226;-77
2021/06/21 06:05:46;;;;;;;;;7.25;7.25;;;;;21.08;68.70;100576.28;4981558;28;45419;-77
2021/06/21 06:08:11;;;;;;;;;8.75;6.75;;;;;21.06;68.63;100570.22;4980346;28;46300;-77
2021/06/21 06:10:37;;;;;;;;;6.00;6.00;;;;;21.04;68.74;100564.13;4981097;28;45248;-77
2021/06/21 06:13:02;;;;;;;;;7.25;6.50;;;;;21.06;68.63;100580.91;4974207;28;45290;-77
2021/06/21 06:15:28;;;;;;;;;7.00;6.25;;;;;21.09;68.88;100580.66;4980773;28;45425;-78
2021/06/21 06:17:53;;;;;;;;;8.00;8.00;;;;;21.06;68.39;100578.25;4979255;28;48174;-77
2021/06/21 06:20:19;;;;;;;;;9.50;8.50;;;;;21.09;68.53;100585.13;4979913;28;45273;-77
2021/06/21 06:22:45;;;;;;;;;7.00;7.00;;;;;21.09;68.44;100588.66;4979173;28;45531;-77
2021/06/21 06:25:11;;;;;;;;;9.25;7.25;;;;;21.13;68.60;100589.28;4979559;28;47274;-77
2021/06/21 06:27:37;;;;;;;;;5.25;5.25;;;;;21.17;68.14;100587.19;4995314;28;48245;-78
2021/06/21 06:30:05;;;;;;;;;5.50;5.50;;;;;21.20;67.54;100585.13;4980367;28;45184;-77
2021/06/21 06:32:31;;;;;;;;;10.25;8.50;;;;;21.22;67.98;100576.97;4980634;28;45380;-77
2021/06/21 06:34:56;;;;;;;;;6.75;6.75;;;;;21.26;68.23;100575.75;4980789;28;45538;-77
2021/06/21 06:37:21;;;;;;;;;8.00;7.00;;;;;21.29;68.86;100572.84;4979039;28;47231;-77
2021/06/21 06:39:47;;;;;;;;;6.00;6.00;;;;;21.27;67.96;100569.44;4978221;28;45281;-77
2021/06/21 06:42:12;;;;;;;;;7.50;7.00;;;;;21.17;66.99;100568.50;4980897;28;45408;-77
2021/06/21 06:44:38;;;;;;;;;7.00;7.00;;;;;21.10;67.30;100563.66;4979612;28;45497;-77
2021/06/21 06:47:05;;;;;;;;;8.25;7.75;;;;;21.06;67.38;100569.38;4978843;28;45343;-76
2021/06/21 06:49:30;;;;;;;;;9.00;9.00;;;;;21.04;68.11;100566.81;4984184;28;45445;-76
2021/06/21 06:51:56;;;;;;;;;7.75;7.25;;;;;20.97;68.05;100562.91;4980601;28;45318;-77
2021/06/21 06:54:25;;;;;;;;;9.50;7.00;;;;;20.90;67.74;100560.75;4979879;28;45612;-77
2021/06/21 06:57:01;;;;;;;;;7.00;7.00;;;;;20.92;68.18;100573.97;4980173;28;45314;-77
2021/06/21 06:59:27;;;;;;;;;7.50;6.00;;;;;20.97;68.40;100573.59;4978710;28;45280;-77
2021/06/21 07:01:52;;;;;;;;;9.75;7.25;;;;;20.98;68.28;100575.31;4980279;28;45641;-77
2021/06/21 07:04:18;;;;;;;;;9.00;9.00;;;;;20.99;68.61;100577.84;4980084;28;45548;-76
2021/06/21 07:06:43;;;;;;;;;6.75;6.75;;;;;21.02;68.45;100572.28;4979102;28;45598;-77
2021/06/21 07:09:09;;;;;;;;;8.50;8.25;;;;;21.09;68.19;100572.63;4967167;28;45241;-77
2021/06/21 07:11:36;;;;;;;;;5.75;5.75;;;;;21.16;67.76;100581.03;4980385;28;45354;-77
2021/06/21 07:14:06;;;;;;;;;6.50;6.00;;;;;21.23;67.48;100584.91;4979978;28;45257;-77
2021/06/21 07:16:32;;;;;;;;;7.25;6.50;;;;;21.30;67.48;100595.94;4978714;28;47325;-77
2021/06/21 07:18:58;;;;;;;;;7.50;6.25;;;;;21.31;66.69;100591.44;4978349;28;45588;-75
2021/06/21 07:21:23;;;;;;;;;8.00;7.25;;;;;21.29;66.50;100586.19;4995184;28;45475;-74
2021/06/21 07:23:48;;;;;;;;;5.50;5.00;;;;;21.30;65.50;100595.06;4979804;28;45570;-78
2021/06/21 07:26:14;;;;;;;;;8.00;6.75;;;;;21.30;66.54;100595.06;4979561;28;46461;-77
2021/06/21 07:28:39;;;;;;;;;7.00;4.75;;;;;21.35;66.22;100599.09;4979681;28;45320;-78
2021/06/21 07:31:05;;;;;;;;;5.00;5.00;;;;;21.37;66.47;100598.94;4978675;28;45328;-78
2021/06/21 07:33:31;;;;;;;;;8.25;4.75;;;;;21.43;66.84;100603.81;4972400;28;45369;-78
2021/06/21 07:35:57;;;;;;;;;5.00;5.00;;;;;21.44;64.71;100609.97;4976325;28;45325;-76
2021/06/21 07:38:23;;;;;;;;;6.00;6.00;;;;;21.38;65.24;100607.81;4979976;28;45422;-78
2021/06/21 07:40:48;;;;;;;;;5.50;5.00;;;;;21.36;66.28;100613.28;4983429;28;45455;-78
2021/06/21 07:43:14;;;;;;;;;6.00;6.00;;;;;21.38;65.92;100614.03;4982064;28;47188;-77
2021/06/21 07:45:41;;;;;;;;;6.00;6.00;;;;;21.39;65.90;100615.69;4981761;28;48082;-78
2021/06/21 07:48:06;;;;;;;;;7.00;6.00;;;;;21.44;65.73;100618.84;4983280;28;45494;-77
2021/06/21 07:50:32;;;;;;;;;8.00;6.75;;;;;21.49;65.64;100618.47;4985189;28;45242;-77
2021/06/21 07:52:58;;;;;;;;;5.75;5.75;;;;;21.52;65.19;100620.91;4982731;28;45604;-77
2021/06/21 07:55:27;;;;;;;;;6.50;6.50;;;;;21.51;65.71;100619.19;4982896;28;45791;-77
2021/06/21 07:57:52;;;;;;;;;5.00;5.00;;;;;21.49;65.08;100623.81;4983100;28;45538;-78
2021/06/21 08:00:21;;;;;;;;;8.75;7.00;;;;;21.46;64.88;100627.59;4981666;28;45508;-78
2021/06/21 08:02:46;;;;;;;;;6.00;5.75;;;;;21.47;64.28;100628.44;4980799;28;45399;-78
2021/06/21 08:05:12;;;;;;;;;4.00;4.00;;;;;21.44;63.86;100634.91;4982879;28;46042;-78
2021/06/21 08:07:38;;;;;;;;;6.25;6.25;;;;;21.43;64.44;100635.03;4981562;28;45555;-83
2021/06/21 08:10:04;;;;;;;;;5.00;5.00;;;;;21.43;63.97;100640.38;4980042;28;45495;-77
2021/06/21 08:12:30;;;;;;;;;4.25;4.25;;;;;21.44;64.49;100642.91;4981364;28;45448;-77
2021/06/21 08:14:55;;;;;;;;;5.75;5.75;;;;;21.42;63.50;100644.00;4982145;28;46453;-76
2021/06/21 08:17:20;;;;;;;;;8.75;6.75;;;;;21.39;64.46;100639.75;4982845;28;45317;-71
2021/06/21 08:19:46;;;;;;;;;4.00;4.00;;;;;21.41;64.05;100645.81;4981472;28;45365;-70
2021/06/21 08:22:11;;;;;;;;;5.25;5.25;;;;;21.42;63.95;100641.34;4981939;28;45353;-70
2021/06/21 08:24:40;;;;;;;;;5.25;3.50;;;;;21.44;62.85;100644.72;4982504;28;46120;-70
2021/06/21 08:27:06;;;;;;;;;4.75;4.00;;;;;21.36;62.84;100643.53;4981296;28;45649;-75
2021/06/21 08:29:31;;;;;;;;;3.25;3.25;;;;;21.34;62.13;100648.16;4982960;28;45285;-75
2021/06/21 08:31:57;;;;;;;;;3.00;3.00;;;;;21.30;62.19;100633.34;4982102;28;45491;-76
2021/06/21 08:34:22;;;;;;;;;3.25;2.00;;;;;21.31;62.27;100640.38;4982557;28;46318;-75
2021/06/21 08:36:47;;;;;;;;;4.75;4.00;;;;;21.31;61.86;100644.91;4982389;28;45231;-75
2021/06/21 08:39:13;;;;;;;;;3.00;3.00;;;;;21.30;61.47;100632.50;4982686;28;45349;-76
2021/06/21 08:41:38;;;;;;;;;3.50;3.50;;;;;21.31;61.99;100640.38;4981608;28;45263;-76
2021/06/21 08:44:04;;;;;;;;;3.25;3.25;;;;;21.31;61.36;100635.03;4981811;28;46528;-77
2021/06/21 08:46:29;;;;;;;;;3.25;3.25;;;;;21.39;61.40;100633.56;4981847;28;45406;-77
2021/06/21 08:48:57;;;;;;;;;1.75;1.50;;;;;21.42;60.96;100642.19;4997464;28;45541;-76
2021/06/21 08:51:23;;;;;;;;;3.50;3.00;;;;;21.47;61.17;100641.81;4982373;28;45265;-76
2021/06/21 08:53:48;;;;;;;;;3.00;3.00;;;;;21.51;61.01;100645.09;4981752;28;45368;-76
2021/06/21 08:56:14;;;;;;;;;1.25;1.25;;;;;21.53;60.30;100629.78;4981529;28;45365;-76
2021/06/21 08:58:40;;;;;;;;;3.50;2.75;;;;;21.58;60.58;100636.44;4981973;28;45230;-76
2021/06/21 09:01:09;;;;;;;;;2.00;2.00;;;;;21.61;61.04;100634.50;4989058;28;45530;-77
2021/06/21 09:03:35;;;;;;;;;2.00;2.00;;;;;21.62;59.81;100639.72;4969818;28;45326;-76
2021/06/21 09:06:01;;;;;;;;;3.00;3.00;;;;;21.64;60.59;100643.09;4982097;28;45376;-83
2021/06/21 19:19:49;;;;;;;;;2.00;2.00;;;;;23.12;49.42;100679.09;5018029;23;45540;-85
2021/06/21 19:22:14;;;;;;;;;3.00;3.00;;;;;23.11;49.09;100683.59;4941093;28;45439;-84
2021/06/21 19:24:40;;;;;;;;;2.25;2.25;;;;;23.10;49.99;100684.59;4941254;28;45439;-84
2021/06/21 19:27:07;;;;;;;;;2.75;2.50;;;;;23.10;49.99;100695.31;4939820;28;45463;-84
2021/06/21 19:29:33;;;;;;;;;4.00;4.00;;;;;23.14;49.80;100706.59;4941164;28;45583;-84
2021/06/21 19:31:58;;;;;;;;;6.50;2.50;;;;;23.08;50.17;100704.47;4941278;28;45398;-85
2021/06/21 19:34:24;;;;;;;;;4.00;2.75;;;;;23.05;50.62;100705.59;4935908;28;45306;-84
2021/06/21 19:36:49;;;;;;;;;2.25;2.25;;;;;23.08;50.70;100717.88;4937251;28;46941;-84
2021/06/21 19:39:14;;;;;;;;;1.75;1.75;;;;;23.06;51.21;100719.84;4937916;28;45432;-85
2021/06/21 19:41:44;;;;;;;;;3.00;3.00;;;;;23.03;51.30;100731.69;4939989;28;45575;-84
2021/06/21 19:44:09;;;;;;;;;6.25;3.00;;;;;23.03;51.09;100737.88;4941441;28;45253;-84
2021/06/21 19:46:35;;;;;;;;;3.50;2.00;;;;;23.00;51.71;100753.38;4940813;28;45363;-84
2021/06/21 19:49:00;;;;;;;;;4.25;2.25;;;;;23.00;51.78;100772.13;4938411;28;45329;-84
2021/06/21 19:51:25;;;;;;;;;1.75;1.75;;;;;22.88;51.99;100761.50;4941216;28;45336;-84
2021/06/21 19:53:51;;;;;;;;;0.00;0.00;;;;;22.80;52.54;100772.88;4940796;28;45430;-84
2021/06/21 19:56:16;;;;;;;;;1.00;1.00;;;;;22.72;52.82;100767.28;4939817;28;45519;-84
2021/06/21 19:58:44;;;;;;;;;0.00;0.00;;;;;22.59;52.77;100775.50;4941156;28;45605;-85
2021/06/21 20:01:09;;;;;;;;;0.50;0.50;;;;;22.45;53.04;100766.78;4941131;28;45242;-84
2021/06/21 20:03:35;;;;;;;;;0.75;0.00;;;;;22.40;53.05;100776.22;4937111;28;45651;-84
2021/06/21 20:06:00;;;;;;;;;0.00;0.00;;;;;22.28;53.34;100764.66;4937732;28;46000;-84
2021/06/21 20:08:30;;;;;;;;;0.00;0.00;;;;;22.16;53.75;100764.72;4936387;28;47225;-84
2021/06/21 20:10:56;;;;;;;;;1.50;0.00;;;;;22.02;53.73;100758.69;4939359;28;45576;-84
2021/06/21 20:13:22;;;;;;;;;0.00;0.00;;;;;21.99;53.30;100756.25;4939039;28;45389;-84
2021/06/21 20:15:48;;;;;;;;;0.00;0.00;;;;;21.90;53.31;100754.34;4939551;28;45293;-85
2021/06/21 20:18:13;;;;;;;;;1.00;1.00;;;;;21.81;53.87;100754.06;4937548;28;47091;-83
2021/06/21 20:20:40;;;;;;;;;0.00;0.00;;;;;21.77;53.77;100757.97;4939176;28;45327;-83
2021/06/21 20:23:06;;;;;;;;;0.00;0.00;;;;;21.75;53.65;100759.94;4940187;28;45286;-84
2021/06/21 20:25:32;;;;;;;;;0.00;0.00;;;;;21.70;53.78;100748.75;4939437;28;45400;-85
2021/06/21 20:27:57;;;;;;;;;0.00;0.00;;;;;21.69;53.70;100749.72;4940357;28;46551;-84
2021/06/21 20:30:22;;;;;;;;;0.00;0.00;;;;;21.59;54.22;100738.91;4939548;28;45457;-84
2021/06/21 20:32:59;;;;;;;;;1.00;1.00;;;;;21.58;54.89;100746.06;4938606;28;45259;-83
2021/06/21 20:35:31;;;;;;;;;0.00;0.00;;;;;21.54;54.95;100739.28;4938127;28;46100;-84
2021/06/21 20:38:00;;;;;;;;;0.00;0.00;;;;;21.54;54.88;100751.78;4939735;28;45577;-83
2021/06/21 20:40:27;;;;;;;;;0.00;0.00;;;;;21.52;55.43;100745.72;4939051;28;45583;-84
2021/06/21 20:42:52;;;;;;;;;0.00;0.00;;;;;21.50;55.46;100739.66;4940592;28;45442;-83
2021/06/21 20:45:18;;;;;;;;;0.00;0.00;;;;;21.46;54.88;100742.56;4939286;28;46096;-84
2021/06/21 20:47:44;;;;;;;;;0.00;0.00;;;;;21.41;55.41;100735.91;4941475;28;47166;-83
2021/06/21 20:50:11;;;;;;;;;0.00;0.00;;;;;21.38;55.36;100736.13;4943857;28;45564;-84
2021/06/21 20:52:37;;;;;;;;;1.75;0.75;;;;;21.34;55.88;100731.03;4941601;28;45312;-81
2021/06/21 20:55:11;;;;;;;;;0.25;0.25;;;;;21.35;56.44;100730.06;4942817;28;45236;-80
2021/06/21 20:57:38;;;;;;;;;1.00;1.00;;;;;21.35;56.88;100731.88;4940263;28;47271;-78
2021/06/21 21:00:13;;;;;;;;;0.00;0.00;;;;;21.30;55.90;100732.25;4940706;28;45802;-77
2021/06/21 21:02:39;;;;;;;;;1.00;1.00;;;;;21.19;56.38;100727.72;4932681;28;45269;-78
2021/06/21 21:05:05;;;;;;;;;0.75;0.75;;;;;21.20;56.32;100737.47;4943269;28;45466;-77
2021/06/21 21:07:30;;;;;;;;;1.50;0.75;;;;;21.19;56.54;100742.91;4941634;28;45428;-79
2021/06/21 21:09:56;;;;;;;;;0.00;0.00;;;;;21.20;56.21;100752.66;4942462;28;45258;-79
2021/06/21 21:12:22;;;;;;;;;0.25;0.25;;;;;21.22;56.16;100756.03;4942603;28;45463;-79
2021/06/21 21:14:47;;;;;;;;;0.50;0.50;;;;;21.20;56.44;100768.69;4941060;28;47280;-79
2021/06/21 21:17:13;;;;;;;;;1.00;1.00;;;;;21.21;56.59;100776.56;4939656;28;48214;-79
2021/06/21 21:19:38;;;;;;;;;0.00;0.00;;;;;21.22;56.62;100780.09;4942979;28;45461;-79
2021/06/21 21:22:06;;;;;;;;;0.25;0.00;;;;;21.20;56.31;100790.91;4941981;28;45374;-79
2021/06/21 21:24:32;;;;;;;;;2.00;0.00;;;;;21.23;56.57;100808.53;4938515;28;46362;-79
2021/06/21 21:26:57;;;;;;;;;1.75;1.00;;;;;21.22;56.82;100812.16;4942769;28;45219;-79
2021/06/21 21:29:22;;;;;;;;;0.50;0.50;;;;;21.22;56.72;100806.81;4942318;28;45198;-79
2021/06/21 21:31:49;;;;;;;;;1.00;1.00;;;;;21.18;56.81;100816.06;4941929;28;45700;-79
2021/06/21 21:34:15;;;;;;;;;0.00;0.00;;;;;21.15;56.93;100814.47;4942286;28;45594;-79